sensor_id;sensor_type;location;lat;lon;timestamp;pressure;altitude;pressure_sealevel;temperature;humidity
49297;BME280;35163;48.878;18.040;2023-01-31T00:01:35;97939.88;;;3.13;82.31
49297;BME280;35163;48.878;18.040;2023-01-31T00:04:05;97950.16;;;3.07;82.08
49297;BME280;35163;48.878;18.040;2023-01-31T00:06:34;97943.28;;;3.09;81.70
49297;BME280;35163;48.878;18.040;2023-01-31T00:09:04;97955.25;;;3.04;82.11
49297;BME280;35163;48.878;18.040;2023-01-31T00:11:31;97957.81;;;3.07;81.74
49297;BME280;35163;48.878;18.040;2023-01-31T00:13:58;97967.16;;;3.08;81.91
49297;BME280;35163;48.878;18.040;2023-01-31T00:16:26;97960.34;;;3.10;81.62
49297;BME280;35163;48.878;18.040;2023-01-31T00:18:53;97971.41;;;3.08;81.53
49297;BME280;35163;48.878;18.040;2023-01-31T00:21:26;97960.34;;;3.09;81.26
49297;BME280;35163;48.878;18.040;2023-01-31T00:23:54;97963.72;;;3.12;81.13
49297;BME280;35163;48.878;18.040;2023-01-31T00:26:26;97973.13;;;3.10;81.58
49297;BME280;35163;48.878;18.040;2023-01-31T00:28:58;97968.84;;;3.09;81.78
49297;BME280;35163;48.878;18.040;2023-01-31T00:31:27;97971.38;;;3.11;81.02
49297;BME280;35163;48.878;18.040;2023-01-31T00:33:55;97967.13;;;3.11;81.53
49297;BME280;35163;48.878;18.040;2023-01-31T00:36:28;97973.94;;;3.09;81.59
49297;BME280;35163;48.878;18.040;2023-01-31T00:38:58;97976.50;;;3.12;81.72
49297;BME280;35163;48.878;18.040;2023-01-31T00:41:29;97980.78;;;3.10;82.54
49297;BME280;35163;48.878;18.040;2023-01-31T00:43:56;97982.47;;;3.11;82.47
49297;BME280;35163;48.878;18.040;2023-01-31T00:46:23;97973.91;;;3.15;81.50
49297;BME280;35163;48.878;18.040;2023-01-31T00:48:50;97983.25;;;3.18;81.51
49297;BME280;35163;48.878;18.040;2023-01-31T00:51:17;97982.44;;;3.18;81.69
49297;BME280;35163;48.878;18.040;2023-01-31T00:53:44;97995.22;;;3.11;81.41
49297;BME280;35163;48.878;18.040;2023-01-31T00:56:13;97990.94;;;3.15;81.56
49297;BME280;35163;48.878;18.040;2023-01-31T00:58:41;97990.97;;;3.13;81.24
49297;BME280;35163;48.878;18.040;2023-01-31T01:01:13;97991.81;;;3.14;80.97
49297;BME280;35163;48.878;18.040;2023-01-31T01:03:41;97993.50;;;3.15;81.04
49297;BME280;35163;48.878;18.040;2023-01-31T01:06:09;97995.22;;;3.11;80.59
49297;BME280;35163;48.878;18.040;2023-01-31T01:08:37;97990.91;;;3.20;80.66
49297;BME280;35163;48.878;18.040;2023-01-31T01:11:14;97984.09;;;3.22;80.15
49297;BME280;35163;48.878;18.040;2023-01-31T01:13:42;97995.22;;;3.13;79.43
49297;BME280;35163;48.878;18.040;2023-01-31T01:16:15;97994.41;;;3.12;79.43
49297;BME280;35163;48.878;18.040;2023-01-31T01:18:46;97995.22;;;3.18;78.91
49297;BME280;35163;48.878;18.040;2023-01-31T01:21:26;97991.81;;;3.11;79.43
49297;BME280;35163;48.878;18.040;2023-01-31T01:23:58;97994.41;;;3.09;79.14
49297;BME280;35163;48.878;18.040;2023-01-31T01:26:27;97996.97;;;3.08;79.30
49297;BME280;35163;48.878;18.040;2023-01-31T01:28:55;97999.50;;;3.09;78.81
49297;BME280;35163;48.878;18.040;2023-01-31T01:31:29;98002.06;;;3.12;78.82
49297;BME280;35163;48.878;18.040;2023-01-31T01:33:58;98000.31;;;3.14;78.20
49297;BME280;35163;48.878;18.040;2023-01-31T01:36:26;98009.72;;;3.12;78.29
49297;BME280;35163;48.878;18.040;2023-01-31T01:38:53;98008.84;;;3.15;78.44
49297;BME280;35163;48.878;18.040;2023-01-31T01:41:20;98010.53;;;3.18;78.40
49297;BME280;35163;48.878;18.040;2023-01-31T01:43:55;98025.88;;;3.13;77.74
49297;BME280;35163;48.878;18.040;2023-01-31T01:51:37;98037.81;;;3.11;76.97
49297;BME280;35163;48.878;18.040;2023-01-31T01:54:13;98041.25;;;3.08;76.87
49297;BME280;35163;48.878;18.040;2023-01-31T01:56:42;98042.94;;;3.14;77.28
49297;BME280;35163;48.878;18.040;2023-01-31T01:59:32;98050.59;;;3.11;77.38
49297;BME280;35163;48.878;18.040;2023-01-31T02:02:00;98043.75;;;3.14;76.62
49297;BME280;35163;48.878;18.040;2023-01-31T02:04:31;98048.84;;;3.16;76.64
49297;BME280;35163;48.878;18.040;2023-01-31T02:06:59;98052.25;;;3.16;76.58
49297;BME280;35163;48.878;18.040;2023-01-31T02:11:58;98066.75;;;3.18;76.28
49297;BME280;35163;48.878;18.040;2023-01-31T02:14:25;98067.59;;;3.16;76.18
49297;BME280;35163;48.878;18.040;2023-01-31T02:16:52;98072.66;;;3.20;75.82
49297;BME280;35163;48.878;18.040;2023-01-31T02:22:03;98078.63;;;3.22;75.69
49297;BME280;35163;48.878;18.040;2023-01-31T02:27:43;98074.38;;;3.24;75.26
49297;BME280;35163;48.878;18.040;2023-01-31T02:33:01;98083.69;;;3.30;74.72
49297;BME280;35163;48.878;18.040;2023-01-31T02:44:20;98093.06;;;3.29;74.46
49297;BME280;35163;48.878;18.040;2023-01-31T02:47:23;98091.31;;;3.34;73.77
49297;BME280;35163;48.878;18.040;2023-01-31T02:50:16;98090.47;;;3.32;74.12
49297;BME280;35163;48.878;18.040;2023-01-31T02:52:57;98096.44;;;3.34;73.86
49297;BME280;35163;48.878;18.040;2023-01-31T02:55:34;98099.84;;;3.33;73.54
49297;BME280;35163;48.878;18.040;2023-01-31T02:58:21;98092.97;;;3.42;73.88
49297;BME280;35163;48.878;18.040;2023-01-31T03:00:50;98093.81;;;3.42;72.91
49297;BME280;35163;48.878;18.040;2023-01-31T03:03:24;98095.53;;;3.43;73.10
49297;BME280;35163;48.878;18.040;2023-01-31T03:08:37;98120.25;;;3.41;73.88
49297;BME280;35163;48.878;18.040;2023-01-31T03:11:07;98121.09;;;3.42;74.66
49297;BME280;35163;48.878;18.040;2023-01-31T03:13:46;98132.16;;;3.42;75.11
49297;BME280;35163;48.878;18.040;2023-01-31T03:16:27;98144.09;;;3.45;75.92
49297;BME280;35163;48.878;18.040;2023-01-31T03:19:20;98155.19;;;3.40;77.75
49297;BME280;35163;48.878;18.040;2023-01-31T03:21:56;98154.34;;;3.35;78.98
49297;BME280;35163;48.878;18.040;2023-01-31T03:24:27;98167.16;;;3.31;80.31
49297;BME280;35163;48.878;18.040;2023-01-31T03:26:57;98160.44;;;3.17;81.65
49297;BME280;35163;48.878;18.040;2023-01-31T03:29:27;98157.84;;;3.20;81.21
49297;BME280;35163;48.878;18.040;2023-01-31T03:32:14;98157.91;;;3.14;82.65
49297;BME280;35163;48.878;18.040;2023-01-31T03:34:45;98157.06;;;3.12;83.05
49297;BME280;35163;48.878;18.040;2023-01-31T03:37:33;98150.25;;;3.09;83.51
49297;BME280;35163;48.878;18.040;2023-01-31T03:40:12;98151.97;;;3.09;83.82
49297;BME280;35163;48.878;18.040;2023-01-31T03:47:59;98164.75;;;3.04;83.79
49297;BME280;35163;48.878;18.040;2023-01-31T03:50:34;98154.50;;;3.13;82.66
49297;BME280;35163;48.878;18.040;2023-01-31T03:53:08;98150.22;;;3.11;83.12
49297;BME280;35163;48.878;18.040;2023-01-31T03:55:41;98152.75;;;3.19;82.19
49297;BME280;35163;48.878;18.040;2023-01-31T03:58:10;98151.06;;;3.18;82.78
49297;BME280;35163;48.878;18.040;2023-01-31T04:00:41;98153.63;;;3.18;82.31
49297;BME280;35163;48.878;18.040;2023-01-31T04:03:20;98145.13;;;3.11;82.14
49297;BME280;35163;48.878;18.040;2023-01-31T04:05:49;98160.41;;;3.20;81.68
49297;BME280;35163;48.878;18.040;2023-01-31T04:08:16;98160.38;;;3.31;80.39
49297;BME280;35163;48.878;18.040;2023-01-31T04:10:43;98159.47;;;3.35;79.27
49297;BME280;35163;48.878;18.040;2023-01-31T04:13:09;98166.28;;;3.39;79.60
49297;BME280;35163;48.878;18.040;2023-01-31T04:15:36;98168.84;;;3.33;79.66
49297;BME280;35163;48.878;18.040;2023-01-31T04:18:06;98171.41;;;3.36;79.29
49297;BME280;35163;48.878;18.040;2023-01-31T04:20:32;98168.00;;;3.34;79.00
49297;BME280;35163;48.878;18.040;2023-01-31T04:22:59;98178.22;;;3.36;79.28
49297;BME280;35163;48.878;18.040;2023-01-31T04:25:26;98180.81;;;3.30;78.94
49297;BME280;35163;48.878;18.040;2023-01-31T04:27:52;98183.31;;;3.37;79.17
49297;BME280;35163;48.878;18.040;2023-01-31T04:30:19;98196.09;;;3.37;78.85
49297;BME280;35163;48.878;18.040;2023-01-31T04:32:45;98185.00;;;3.38;78.12
49297;BME280;35163;48.878;18.040;2023-01-31T04:35:12;98187.56;;;3.43;76.73
49297;BME280;35163;48.878;18.040;2023-01-31T04:37:39;98187.50;;;3.51;76.54
49297;BME280;35163;48.878;18.040;2023-01-31T04:40:06;98194.31;;;3.49;74.58
49297;BME280;35163;48.878;18.040;2023-01-31T04:42:33;98199.41;;;3.54;75.52
49297;BME280;35163;48.878;18.040;2023-01-31T04:45:00;98187.50;;;3.51;75.85
49297;BME280;35163;48.878;18.040;2023-01-31T04:47:27;98202.84;;;3.51;75.43
49297;BME280;35163;48.878;18.040;2023-01-31T04:49:53;98207.06;;;3.58;75.42
49297;BME280;35163;48.878;18.040;2023-01-31T04:52:20;98204.47;;;3.60;74.48
49297;BME280;35163;48.878;18.040;2023-01-31T04:54:49;98199.41;;;3.54;73.17
49297;BME280;35163;48.878;18.040;2023-01-31T04:57:16;98206.25;;;3.50;71.89
49297;BME280;35163;48.878;18.040;2023-01-31T04:59:42;98207.13;;;3.44;71.96
49297;BME280;35163;48.878;18.040;2023-01-31T05:02:12;98208.81;;;3.45;71.75
49297;BME280;35163;48.878;18.040;2023-01-31T05:04:40;98210.56;;;3.38;70.89
49297;BME280;35163;48.878;18.040;2023-01-31T05:07:07;98213.13;;;3.37;69.96
49297;BME280;35163;48.878;18.040;2023-01-31T05:09:33;98223.34;;;3.40;70.39
49297;BME280;35163;48.878;18.040;2023-01-31T05:12:00;98232.75;;;3.30;70.38
49297;BME280;35163;48.878;18.040;2023-01-31T05:14:26;98243.03;;;3.24;70.92
49297;BME280;35163;48.878;18.040;2023-01-31T05:16:53;98242.19;;;3.20;70.74
49297;BME280;35163;48.878;18.040;2023-01-31T05:19:20;98254.97;;;3.19;70.42
49297;BME280;35163;48.878;18.040;2023-01-31T05:21:49;98260.94;;;3.13;70.67
49297;BME280;35163;48.878;18.040;2023-01-31T05:24:34;98257.56;;;3.08;70.57
49297;BME280;35163;48.878;18.040;2023-01-31T05:27:02;98261.00;;;3.00;71.19
49297;BME280;35163;48.878;18.040;2023-01-31T05:29:31;98269.50;;;3.02;71.24
49297;BME280;35163;48.878;18.040;2023-01-31T05:31:59;98279.72;;;3.04;71.02
49297;BME280;35163;48.878;18.040;2023-01-31T05:34:29;98277.16;;;3.01;70.92
49297;BME280;35163;48.878;18.040;2023-01-31T05:36:59;98276.31;;;3.03;71.16
49297;BME280;35163;48.878;18.040;2023-01-31T05:39:26;98281.41;;;3.08;71.61
49297;BME280;35163;48.878;18.040;2023-01-31T05:41:53;98284.00;;;3.02;71.26
49297;BME280;35163;48.878;18.040;2023-01-31T05:44:20;98295.03;;;3.02;71.24
49297;BME280;35163;48.878;18.040;2023-01-31T05:46:47;98290.78;;;3.03;71.37
49297;BME280;35163;48.878;18.040;2023-01-31T05:49:15;98296.75;;;3.07;71.32
49297;BME280;35163;48.878;18.040;2023-01-31T05:51:42;98294.19;;;3.05;71.09
49297;BME280;35163;48.878;18.040;2023-01-31T05:54:10;98295.94;;;2.97;70.60
49297;BME280;35163;48.878;18.040;2023-01-31T05:56:42;98284.84;;;2.99;70.06
49297;BME280;35163;48.878;18.040;2023-01-31T05:59:09;98303.59;;;3.00;70.73
49297;BME280;35163;48.878;18.040;2023-01-31T06:01:35;98294.22;;;2.92;70.97
49297;BME280;35163;48.878;18.040;2023-01-31T06:04:02;98295.09;;;2.95;70.42
49297;BME280;35163;48.878;18.040;2023-01-31T06:06:29;98301.03;;;2.87;70.72
49297;BME280;35163;48.878;18.040;2023-01-31T06:08:59;98301.06;;;2.84;70.13
49297;BME280;35163;48.878;18.040;2023-01-31T06:11:26;98289.97;;;2.87;70.37
49297;BME280;35163;48.878;18.040;2023-01-31T06:13:53;98307.84;;;2.85;70.40
49297;BME280;35163;48.878;18.040;2023-01-31T06:16:23;98312.97;;;2.88;70.40
49297;BME280;35163;48.878;18.040;2023-01-31T06:18:53;98318.97;;;2.79;70.67
49297;BME280;35163;48.878;18.040;2023-01-31T06:21:21;98328.31;;;2.81;70.53
49297;BME280;35163;48.878;18.040;2023-01-31T06:23:48;98314.72;;;2.71;71.11
49297;BME280;35163;48.878;18.040;2023-01-31T06:26:14;98322.38;;;2.67;70.96
49297;BME280;35163;48.878;18.040;2023-01-31T06:28:41;98324.94;;;2.66;70.50
49297;BME280;35163;48.878;18.040;2023-01-31T06:31:11;98332.56;;;2.60;70.76
49297;BME280;35163;48.878;18.040;2023-01-31T06:33:38;98326.63;;;2.56;70.91
49297;BME280;35163;48.878;18.040;2023-01-31T06:36:12;98337.69;;;2.49;71.66
49297;BME280;35163;48.878;18.040;2023-01-31T06:38:45;98334.28;;;2.48;71.07
49297;BME280;35163;48.878;18.040;2023-01-31T06:41:15;98336.84;;;2.50;71.15
49297;BME280;35163;48.878;18.040;2023-01-31T06:43:42;98354.72;;;2.51;70.86
49297;BME280;35163;48.878;18.040;2023-01-31T06:46:08;98356.44;;;2.54;70.79
49297;BME280;35163;48.878;18.040;2023-01-31T06:48:35;98354.72;;;2.50;70.91
49297;BME280;35163;48.878;18.040;2023-01-31T06:51:01;98369.16;;;2.49;71.85
49297;BME280;35163;48.878;18.040;2023-01-31T06:53:28;98379.41;;;2.52;72.00
49297;BME280;35163;48.878;18.040;2023-01-31T06:55:55;98379.41;;;2.57;71.51
49297;BME280;35163;48.878;18.040;2023-01-31T06:58:22;98375.97;;;2.55;71.25
49297;BME280;35163;48.878;18.040;2023-01-31T07:00:48;98377.69;;;2.59;71.90
49297;BME280;35163;48.878;18.040;2023-01-31T07:03:15;98381.09;;;2.66;71.56
49297;BME280;35163;48.878;18.040;2023-01-31T07:05:44;98379.38;;;2.68;71.56
49297;BME280;35163;48.878;18.040;2023-01-31T07:08:10;98381.94;;;2.73;71.19
49297;BME280;35163;48.878;18.040;2023-01-31T07:10:37;98385.34;;;2.75;70.00
49297;BME280;35163;48.878;18.040;2023-01-31T07:13:06;98390.47;;;2.79;70.35
49297;BME280;35163;48.878;18.040;2023-01-31T07:15:33;98400.69;;;2.76;70.43
49297;BME280;35163;48.878;18.040;2023-01-31T07:17:59;98405.78;;;2.81;69.77
49297;BME280;35163;48.878;18.040;2023-01-31T07:20:26;98404.91;;;2.82;70.64
49297;BME280;35163;48.878;18.040;2023-01-31T07:22:54;98415.13;;;2.82;72.32
49297;BME280;35163;48.878;18.040;2023-01-31T07:25:28;98420.25;;;2.82;73.71
49297;BME280;35163;48.878;18.040;2023-01-31T07:27:57;98415.13;;;2.84;74.41
49297;BME280;35163;48.878;18.040;2023-01-31T07:30:24;98420.25;;;2.91;74.65
49297;BME280;35163;48.878;18.040;2023-01-31T07:32:51;98423.66;;;2.90;74.75
49297;BME280;35163;48.878;18.040;2023-01-31T07:35:18;98421.94;;;2.99;74.18
49297;BME280;35163;48.878;18.040;2023-01-31T07:37:51;98440.69;;;3.10;71.98
49297;BME280;35163;48.878;18.040;2023-01-31T07:40:18;98439.81;;;3.16;72.06
49297;BME280;35163;48.878;18.040;2023-01-31T07:42:48;98434.69;;;3.13;71.83
49297;BME280;35163;48.878;18.040;2023-01-31T07:45:17;98433.84;;;3.17;71.52
49297;BME280;35163;48.878;18.040;2023-01-31T07:47:49;98438.97;;;3.22;71.63
49297;BME280;35163;48.878;18.040;2023-01-31T07:50:18;98441.53;;;3.19;71.62
49297;BME280;35163;48.878;18.040;2023-01-31T07:52:44;98451.72;;;3.25;71.31
49297;BME280;35163;48.878;18.040;2023-01-31T07:55:11;98450.88;;;3.32;70.18
49297;BME280;35163;48.878;18.040;2023-01-31T07:57:40;98448.31;;;3.42;68.96
49297;BME280;35163;48.878;18.040;2023-01-31T08:00:07;98440.63;;;3.48;69.58
49297;BME280;35163;48.878;18.040;2023-01-31T08:02:55;98430.38;;;3.54;68.73
49297;BME280;35163;48.878;18.040;2023-01-31T08:05:39;98443.16;;;3.49;68.40
49297;BME280;35163;48.878;18.040;2023-01-31T08:08:06;98434.63;;;3.58;68.17
49297;BME280;35163;48.878;18.040;2023-01-31T08:10:36;98436.34;;;3.64;68.06
49297;BME280;35163;48.878;18.040;2023-01-31T08:13:04;98438.00;;;3.71;68.18
49297;BME280;35163;48.878;18.040;2023-01-31T08:15:32;98435.44;;;3.76;67.48
49297;BME280;35163;48.878;18.040;2023-01-31T08:17:59;98444.78;;;3.80;67.63
49297;BME280;35163;48.878;18.040;2023-01-31T08:20:26;98445.63;;;3.85;67.55
49297;BME280;35163;48.878;18.040;2023-01-31T08:22:52;98447.31;;;3.91;66.78
49297;BME280;35163;48.878;18.040;2023-01-31T08:25:19;98436.22;;;3.92;66.38
49297;BME280;35163;48.878;18.040;2023-01-31T08:27:48;98442.22;;;3.83;65.00
49297;BME280;35163;48.878;18.040;2023-01-31T08:30:15;98445.63;;;3.82;65.44
49297;BME280;35163;48.878;18.040;2023-01-31T08:32:41;98460.13;;;3.82;65.32
49297;BME280;35163;48.878;18.040;2023-01-31T08:35:08;98463.53;;;3.82;65.34
49297;BME280;35163;48.878;18.040;2023-01-31T08:37:40;98472.94;;;3.77;64.78
49297;BME280;35163;48.878;18.040;2023-01-31T08:40:16;98479.75;;;3.78;64.81
49297;BME280;35163;48.878;18.040;2023-01-31T08:42:55;98478.03;;;3.80;65.30
49297;BME280;35163;48.878;18.040;2023-01-31T08:45:23;98485.72;;;3.75;65.78
49297;BME280;35163;48.878;18.040;2023-01-31T08:48:02;98486.56;;;3.73;65.72
49297;BME280;35163;48.878;18.040;2023-01-31T08:50:34;98493.41;;;3.77;65.36
49297;BME280;35163;48.878;18.040;2023-01-31T08:53:03;98500.22;;;3.75;64.91
49297;BME280;35163;48.878;18.040;2023-01-31T08:55:34;98512.97;;;3.81;65.46
49297;BME280;35163;48.878;18.040;2023-01-31T08:58:08;98508.72;;;3.89;65.52
49297;BME280;35163;48.878;18.040;2023-01-31T09:00:34;98516.41;;;3.89;66.12
49297;BME280;35163;48.878;18.040;2023-01-31T09:03:01;98512.09;;;3.92;65.53
49297;BME280;35163;48.878;18.040;2023-01-31T09:05:28;98528.28;;;3.97;64.40
49297;BME280;35163;48.878;18.040;2023-01-31T09:07:56;98518.09;;;3.89;64.36
49297;BME280;35163;48.878;18.040;2023-01-31T09:10:22;98529.19;;;3.89;64.44
49297;BME280;35163;48.878;18.040;2023-01-31T09:12:50;98530.03;;;3.87;64.14
49297;BME280;35163;48.878;18.040;2023-01-31T09:15:16;98522.38;;;3.82;63.98
49297;BME280;35163;48.878;18.040;2023-01-31T09:17:49;98530.91;;;3.87;64.02
49297;BME280;35163;48.878;18.040;2023-01-31T09:20:16;98537.72;;;3.93;63.66
49297;BME280;35163;48.878;18.040;2023-01-31T09:22:46;98534.28;;;3.93;63.91
49297;BME280;35163;48.878;18.040;2023-01-31T09:25:12;98537.72;;;3.95;63.07
49297;BME280;35163;48.878;18.040;2023-01-31T09:27:39;98543.66;;;3.98;63.35
49297;BME280;35163;48.878;18.040;2023-01-31T09:30:07;98543.66;;;4.03;63.20
49297;BME280;35163;48.878;18.040;2023-01-31T09:32:34;98537.69;;;4.01;62.43
49297;BME280;35163;48.878;18.040;2023-01-31T09:35:02;98549.63;;;4.07;62.52
49297;BME280;35163;48.878;18.040;2023-01-31T09:37:35;98549.59;;;4.11;62.65
49297;BME280;35163;48.878;18.040;2023-01-31T09:40:02;98547.88;;;4.18;62.54
49297;BME280;35163;48.878;18.040;2023-01-31T09:42:33;98551.28;;;4.17;61.91
49297;BME280;35163;48.878;18.040;2023-01-31T09:45:02;98547.00;;;4.27;60.79
49297;BME280;35163;48.878;18.040;2023-01-31T09:47:36;98547.78;;;4.38;61.34
49297;BME280;35163;48.878;18.040;2023-01-31T09:52:36;98552.88;;;4.45;60.30
49297;BME280;35163;48.878;18.040;2023-01-31T09:55:05;98545.22;;;4.46;58.69
49297;BME280;35163;48.878;18.040;2023-01-31T10:00:42;98539.25;;;4.43;58.56
49297;BME280;35163;48.878;18.040;2023-01-31T10:03:25;98540.06;;;4.48;57.66
49297;BME280;35163;48.878;18.040;2023-01-31T10:06:17;98550.25;;;4.60;57.75
49297;BME280;35163;48.878;18.040;2023-01-31T10:08:59;98541.72;;;4.63;56.48
49297;BME280;35163;48.878;18.040;2023-01-31T10:11:39;98542.56;;;4.64;55.68
49297;BME280;35163;48.878;18.040;2023-01-31T10:14:31;98553.63;;;4.70;56.93
49297;BME280;35163;48.878;18.040;2023-01-31T10:22:50;98560.47;;;4.68;57.70
49297;BME280;35163;48.878;18.040;2023-01-31T10:25:57;98557.91;;;4.68;57.46
49297;BME280;35163;48.878;18.040;2023-01-31T10:36:59;98557.94;;;4.64;56.57
49297;BME280;35163;48.878;18.040;2023-01-31T10:39:38;98555.38;;;4.64;56.45
49297;BME280;35163;48.878;18.040;2023-01-31T10:42:25;98554.50;;;4.65;55.84
49297;BME280;35163;48.878;18.040;2023-01-31T10:45:17;98558.75;;;4.70;56.26
49297;BME280;35163;48.878;18.040;2023-01-31T10:47:50;98553.59;;;4.69;57.13
49297;BME280;35163;48.878;18.040;2023-01-31T10:50:25;98563.03;;;4.67;56.83
49297;BME280;35163;48.878;18.040;2023-01-31T10:56:09;98569.84;;;4.68;57.44
49297;BME280;35163;48.878;18.040;2023-01-31T10:58:41;98574.09;;;4.73;56.53
49297;BME280;35163;48.878;18.040;2023-01-31T11:01:08;98574.06;;;4.77;56.55
49297;BME280;35163;48.878;18.040;2023-01-31T11:03:47;98576.63;;;4.78;57.36
49297;BME280;35163;48.878;18.040;2023-01-31T11:06:18;98562.97;;;4.76;57.18
49297;BME280;35163;48.878;18.040;2023-01-31T11:08:57;98559.53;;;4.80;56.90
49297;BME280;35163;48.878;18.040;2023-01-31T11:11:26;98562.09;;;4.82;56.97
49297;BME280;35163;48.878;18.040;2023-01-31T11:14:04;98559.53;;;4.82;57.50
49297;BME280;35163;48.878;18.040;2023-01-31T11:16:34;98556.09;;;4.84;57.85
49297;BME280;35163;48.878;18.040;2023-01-31T11:19:04;98544.06;;;4.93;58.65
49297;BME280;35163;48.878;18.040;2023-01-31T11:21:38;98535.53;;;4.97;58.74
49297;BME280;35163;48.878;18.040;2023-01-31T11:24:15;98532.09;;;4.98;55.44
49297;BME280;35163;48.878;18.040;2023-01-31T11:26:52;98540.59;;;5.06;55.24
49297;BME280;35163;48.878;18.040;2023-01-31T11:29:35;98538.88;;;5.05;56.13
49297;BME280;35163;48.878;18.040;2023-01-31T11:32:16;98547.44;;;5.06;55.85
49297;BME280;35163;48.878;18.040;2023-01-31T11:35:05;98543.16;;;5.06;55.17
49297;BME280;35163;48.878;18.040;2023-01-31T11:37:33;98543.97;;;5.08;56.61
49297;BME280;35163;48.878;18.040;2023-01-31T11:40:03;98543.19;;;5.00;58.83
49297;BME280;35163;48.878;18.040;2023-01-31T11:43:02;98555.97;;;5.03;61.74
49297;BME280;35163;48.878;18.040;2023-01-31T11:45:31;98546.59;;;5.02;63.84
49297;BME280;35163;48.878;18.040;2023-01-31T11:48:05;98555.16;;;5.01;64.01
49297;BME280;35163;48.878;18.040;2023-01-31T11:50:36;98551.78;;;4.91;65.94
49297;BME280;35163;48.878;18.040;2023-01-31T11:53:16;98548.41;;;4.88;67.27
49297;BME280;35163;48.878;18.040;2023-01-31T11:55:47;98554.34;;;4.90;67.16
49297;BME280;35163;48.878;18.040;2023-01-31T11:58:18;98551.84;;;4.83;67.57
49297;BME280;35163;48.878;18.040;2023-01-31T12:00:57;98545.00;;;4.81;68.07
49297;BME280;35163;48.878;18.040;2023-01-31T12:03:28;98545.00;;;4.79;68.67
49297;BME280;35163;48.878;18.040;2023-01-31T12:06:03;98547.59;;;4.78;68.66
49297;BME280;35163;48.878;18.040;2023-01-31T12:08:34;98547.56;;;4.81;68.50
49297;BME280;35163;48.878;18.040;2023-01-31T12:11:33;98544.06;;;4.93;67.46
49297;BME280;35163;48.878;18.040;2023-01-31T12:16:38;98547.47;;;4.95;66.99
49297;BME280;35163;48.878;18.040;2023-01-31T12:21:50;98529.41;;;5.14;66.17
49297;BME280;35163;48.878;18.040;2023-01-31T12:24:43;98522.59;;;5.14;64.80
49297;BME280;35163;48.878;18.040;2023-01-31T12:27:17;98531.13;;;5.16;64.33
49297;BME280;35163;48.878;18.040;2023-01-31T12:32:35;98524.16;;;5.31;63.42
49297;BME280;35163;48.878;18.040;2023-01-31T12:46:17;98511.22;;;5.45;61.54
49297;BME280;35163;48.878;18.040;2023-01-31T12:49:11;98513.03;;;5.33;61.60
49297;BME280;35163;48.878;18.040;2023-01-31T13:00:44;98508.88;;;5.20;62.59
49297;BME280;35163;48.878;18.040;2023-01-31T13:03:35;98505.47;;;5.18;62.52
49297;BME280;35163;48.878;18.040;2023-01-31T13:06:11;98504.59;;;5.19;62.81
49297;BME280;35163;48.878;18.040;2023-01-31T13:09:02;98516.56;;;5.20;63.82
49297;BME280;35163;48.878;18.040;2023-01-31T13:11:40;98505.50;;;5.10;64.19
49297;BME280;35163;48.878;18.040;2023-01-31T13:14:19;98497.00;;;5.08;64.79
49297;BME280;35163;48.878;18.040;2023-01-31T13:16:51;98503.91;;;5.00;65.32
49297;BME280;35163;48.878;18.040;2023-01-31T13:19:35;98512.44;;;4.97;66.78
49297;BME280;35163;48.878;18.040;2023-01-31T13:22:14;98517.59;;;4.94;67.97
49297;BME280;35163;48.878;18.040;2023-01-31T13:24:46;98509.91;;;4.95;67.37
49297;BME280;35163;48.878;18.040;2023-01-31T13:27:30;98511.63;;;4.92;68.74
49297;BME280;35163;48.878;18.040;2023-01-31T13:30:14;98513.38;;;4.88;69.89
49297;BME280;35163;48.878;18.040;2023-01-31T13:32:47;98509.16;;;4.78;71.21
49297;BME280;35163;48.878;18.040;2023-01-31T13:35:24;98510.88;;;4.74;71.94
49297;BME280;35163;48.878;18.040;2023-01-31T13:37:59;98508.34;;;4.71;73.00
49297;BME280;35163;48.878;18.040;2023-01-31T13:40:35;98512.63;;;4.70;73.16
49297;BME280;35163;48.878;18.040;2023-01-31T13:43:13;98515.22;;;4.62;73.78
49297;BME280;35163;48.878;18.040;2023-01-31T13:45:47;98504.13;;;4.60;73.82
49297;BME280;35163;48.878;18.040;2023-01-31T13:48:25;98504.16;;;4.57;74.12
49297;BME280;35163;48.878;18.040;2023-01-31T13:51:14;98507.59;;;4.55;74.72
49297;BME280;35163;48.878;18.040;2023-01-31T13:53:52;98515.28;;;4.52;74.69
49297;BME280;35163;48.878;18.040;2023-01-31T13:56:27;98509.34;;;4.45;74.78
49297;BME280;35163;48.878;18.040;2023-01-31T13:58:55;98507.66;;;4.42;75.56
49297;BME280;35163;48.878;18.040;2023-01-31T14:01:27;98511.91;;;4.42;75.43
49297;BME280;35163;48.878;18.040;2023-01-31T14:09:29;98500.84;;;4.35;76.91
49297;BME280;35163;48.878;18.040;2023-01-31T14:14:43;98491.50;;;4.24;77.42
49297;BME280;35163;48.878;18.040;2023-01-31T14:20:14;98498.34;;;4.27;77.18
49297;BME280;35163;48.878;18.040;2023-01-31T14:23:27;98495.78;;;4.29;75.99
49297;BME280;35163;48.878;18.040;2023-01-31T14:25:55;98498.31;;;4.30;75.62
49297;BME280;35163;48.878;18.040;2023-01-31T14:28:25;98494.94;;;4.27;75.72
49297;BME280;35163;48.878;18.040;2023-01-31T14:30:52;98487.22;;;4.31;75.65
49297;BME280;35163;48.878;18.040;2023-01-31T14:33:22;98485.50;;;4.32;74.79
49297;BME280;35163;48.878;18.040;2023-01-31T14:36:14;98480.41;;;4.30;74.16
49297;BME280;35163;48.878;18.040;2023-01-31T14:39:19;98474.41;;;4.37;73.64
49297;BME280;35163;48.878;18.040;2023-01-31T14:44:54;98462.41;;;4.40;72.81
49297;BME280;35163;48.878;18.040;2023-01-31T14:47:40;98467.53;;;4.44;72.16
49297;BME280;35163;48.878;18.040;2023-01-31T14:50:31;98470.94;;;4.43;72.74
49297;BME280;35163;48.878;18.040;2023-01-31T14:58:32;98456.44;;;4.45;70.28
49297;BME280;35163;48.878;18.040;2023-01-31T15:01:04;98456.44;;;4.45;70.90
49297;BME280;35163;48.878;18.040;2023-01-31T15:03:35;98460.69;;;4.43;70.45
49297;BME280;35163;48.878;18.040;2023-01-31T15:06:12;98463.25;;;4.43;70.23
49297;BME280;35163;48.878;18.040;2023-01-31T15:08:45;98460.69;;;4.48;69.18
49297;BME280;35163;48.878;18.040;2023-01-31T15:14:49;98459.75;;;4.61;67.10